sensor_id;sensor_type;location;lat;lon;timestamp;P1;durP1;ratioP1;P2;durP2;ratioP2
13443;SDS011;6794;59.218;18.218;2022-10-17T00:00:17;1.93;;;1.20;;
13443;SDS011;6794;59.218;18.218;2022-10-17T00:02:43;4.50;;;1.20;;
13443;SDS011;6794;59.218;18.218;2022-10-17T00:05:09;4.57;;;1.03;;
13443;SDS011;6794;59.218;18.218;2022-10-17T00:07:36;8.07;;;1.33;;
13443;SDS011;6794;59.218;18.218;2022-10-17T00:10:02;4.37;;;1.10;;
13443;SDS011;6794;59.218;18.218;2022-10-17T00:12:28;5.47;;;1.10;;
13443;SDS011;6794;59.218;18.218;2022-10-17T00:14:55;2.70;;;1.00;;
13443;SDS011;6794;59.218;18.218;2022-10-17T00:17:21;5.77;;;1.30;;
13443;SDS011;6794;59.218;18.218;2022-10-17T00:19:47;6.20;;;1.43;;
13443;SDS011;6794;59.218;18.218;2022-10-17T00:22:13;6.60;;;1.37;;
13443;SDS011;6794;59.218;18.218;2022-10-17T00:24:39;5.37;;;1.13;;
13443;SDS011;6794;59.218;18.218;2022-10-17T00:27:05;3.20;;;1.10;;
13443;SDS011;6794;59.218;18.218;2022-10-17T00:29:31;5.47;;;1.67;;
13443;SDS011;6794;59.218;18.218;2022-10-17T00:31:57;6.10;;;1.40;;
13443;SDS011;6794;59.218;18.218;2022-10-17T00:34:23;4.43;;;1.70;;
13443;SDS011;6794;59.218;18.218;2022-10-17T00:36:49;5.67;;;1.20;;
13443;SDS011;6794;59.218;18.218;2022-10-17T00:39:15;6.37;;;1.30;;
13443;SDS011;6794;59.218;18.218;2022-10-17T00:41:42;6.13;;;1.53;;
13443;SDS011;6794;59.218;18.218;2022-10-17T00:46:52;4.50;;;1.43;;
13443;SDS011;6794;59.218;18.218;2022-10-17T00:49:19;5.03;;;1.43;;
13443;SDS011;6794;59.218;18.218;2022-10-17T00:51:46;5.60;;;1.50;;
13443;SDS011;6794;59.218;18.218;2022-10-17T00:54:15;4.97;;;1.20;;
13443;SDS011;6794;59.218;18.218;2022-10-17T00:56:42;5.73;;;1.10;;
13443;SDS011;6794;59.218;18.218;2022-10-17T00:59:08;9.47;;;1.63;;
13443;SDS011;6794;59.218;18.218;2022-10-17T01:01:35;6.63;;;1.50;;
13443;SDS011;6794;59.218;18.218;2022-10-17T01:04:01;7.70;;;1.70;;
13443;SDS011;6794;59.218;18.218;2022-10-17T01:06:27;4.17;;;1.07;;
13443;SDS011;6794;59.218;18.218;2022-10-17T01:08:54;4.97;;;1.37;;
13443;SDS011;6794;59.218;18.218;2022-10-17T01:11:36;4.40;;;1.50;;
13443;SDS011;6794;59.218;18.218;2022-10-17T01:16:58;5.30;;;1.37;;
13443;SDS011;6794;59.218;18.218;2022-10-17T01:22:06;7.20;;;1.77;;
13443;SDS011;6794;59.218;18.218;2022-10-17T01:24:45;3.47;;;1.10;;
13443;SDS011;6794;59.218;18.218;2022-10-17T01:27:24;4.07;;;1.27;;
13443;SDS011;6794;59.218;18.218;2022-10-17T01:37:18;7.07;;;1.43;;
13443;SDS011;6794;59.218;18.218;2022-10-17T01:39:49;7.93;;;1.30;;
13443;SDS011;6794;59.218;18.218;2022-10-17T01:42:22;9.57;;;1.70;;
13443;SDS011;6794;59.218;18.218;2022-10-17T01:47:20;6.30;;;1.73;;
13443;SDS011;6794;59.218;18.218;2022-10-17T01:49:47;6.07;;;1.57;;
13443;SDS011;6794;59.218;18.218;2022-10-17T01:52:17;6.63;;;1.60;;
13443;SDS011;6794;59.218;18.218;2022-10-17T01:54:44;5.97;;;1.63;;
13443;SDS011;6794;59.218;18.218;2022-10-17T01:57:14;8.63;;;1.53;;
13443;SDS011;6794;59.218;18.218;2022-10-17T01:59:43;5.53;;;1.37;;
13443;SDS011;6794;59.218;18.218;2022-10-17T02:02:10;3.93;;;1.10;;
13443;SDS011;6794;59.218;18.218;2022-10-17T02:04:39;4.40;;;1.30;;
13443;SDS011;6794;59.218;18.218;2022-10-17T02:07:06;5.93;;;1.47;;
13443;SDS011;6794;59.218;18.218;2022-10-17T02:09:32;4.73;;;1.10;;
13443;SDS011;6794;59.218;18.218;2022-10-17T02:12:46;8.53;;;2.20;;
13443;SDS011;6794;59.218;18.218;2022-10-17T02:17:59;6.37;;;1.50;;
13443;SDS011;6794;59.218;18.218;2022-10-17T02:24:59;8.00;;;1.47;;
13443;SDS011;6794;59.218;18.218;2022-10-17T02:30:28;6.90;;;2.03;;
13443;SDS011;6794;59.218;18.218;2022-10-17T02:32:51;4.97;;;1.23;;
13443;SDS011;6794;59.218;18.218;2022-10-17T02:35:18;4.23;;;1.87;;
13443;SDS011;6794;59.218;18.218;2022-10-17T02:37:45;7.93;;;1.97;;
13443;SDS011;6794;59.218;18.218;2022-10-17T02:40:12;5.40;;;1.67;;
13443;SDS011;6794;59.218;18.218;2022-10-17T02:42:38;4.70;;;1.53;;
13443;SDS011;6794;59.218;18.218;2022-10-17T02:45:05;5.47;;;1.33;;
13443;SDS011;6794;59.218;18.218;2022-10-17T02:47:35;3.33;;;1.50;;
13443;SDS011;6794;59.218;18.218;2022-10-17T02:50:04;4.90;;;1.30;;
13443;SDS011;6794;59.218;18.218;2022-10-17T02:52:34;4.83;;;1.33;;
13443;SDS011;6794;59.218;18.218;2022-10-17T02:55:06;6.33;;;1.83;;
13443;SDS011;6794;59.218;18.218;2022-10-17T02:57:39;8.87;;;1.87;;
13443;SDS011;6794;59.218;18.218;2022-10-17T03:00:07;6.93;;;1.73;;
13443;SDS011;6794;59.218;18.218;2022-10-17T03:02:38;6.13;;;1.70;;
13443;SDS011;6794;59.218;18.218;2022-10-17T03:05:04;7.90;;;1.53;;
13443;SDS011;6794;59.218;18.218;2022-10-17T03:07:31;6.60;;;1.53;;
13443;SDS011;6794;59.218;18.218;2022-10-17T03:09:57;5.87;;;1.67;;
13443;SDS011;6794;59.218;18.218;2022-10-17T03:12:23;7.77;;;1.83;;
13443;SDS011;6794;59.218;18.218;2022-10-17T03:14:49;7.50;;;1.60;;
13443;SDS011;6794;59.218;18.218;2022-10-17T03:17:15;6.43;;;1.80;;
13443;SDS011;6794;59.218;18.218;2022-10-17T03:19:41;4.97;;;1.20;;
13443;SDS011;6794;59.218;18.218;2022-10-17T03:22:07;7.93;;;1.70;;
13443;SDS011;6794;59.218;18.218;2022-10-17T03:24:33;7.87;;;1.60;;
13443;SDS011;6794;59.218;18.218;2022-10-17T03:26:59;5.60;;;1.40;;
13443;SDS011;6794;59.218;18.218;2022-10-17T03:29:25;4.07;;;1.40;;
13443;SDS011;6794;59.218;18.218;2022-10-17T03:31:51;9.00;;;2.00;;
13443;SDS011;6794;59.218;18.218;2022-10-17T03:34:17;5.10;;;1.60;;
13443;SDS011;6794;59.218;18.218;2022-10-17T03:36:43;7.87;;;1.87;;
13443;SDS011;6794;59.218;18.218;2022-10-17T03:39:09;8.20;;;1.57;;
13443;SDS011;6794;59.218;18.218;2022-10-17T03:41:35;5.00;;;1.47;;
13443;SDS011;6794;59.218;18.218;2022-10-17T03:44:01;11.20;;;1.77;;
13443;SDS011;6794;59.218;18.218;2022-10-17T03:46:27;6.77;;;1.60;;
13443;SDS011;6794;59.218;18.218;2022-10-17T03:48:53;8.13;;;2.20;;
13443;SDS011;6794;59.218;18.218;2022-10-17T03:51:19;3.23;;;1.40;;
13443;SDS011;6794;59.218;18.218;2022-10-17T03:53:45;7.43;;;1.60;;
13443;SDS011;6794;59.218;18.218;2022-10-17T03:58:37;7.57;;;2.00;;
13443;SDS011;6794;59.218;18.218;2022-10-17T04:01:04;6.40;;;1.40;;
13443;SDS011;6794;59.218;18.218;2022-10-17T04:03:31;5.43;;;1.40;;
13443;SDS011;6794;59.218;18.218;2022-10-17T04:05:57;9.60;;;1.67;;
13443;SDS011;6794;59.218;18.218;2022-10-17T04:08:24;6.03;;;1.37;;
13443;SDS011;6794;59.218;18.218;2022-10-17T04:10:51;5.90;;;1.67;;
13443;SDS011;6794;59.218;18.218;2022-10-17T04:13:17;7.53;;;1.80;;
13443;SDS011;6794;59.218;18.218;2022-10-17T04:15:52;9.10;;;1.97;;
13443;SDS011;6794;59.218;18.218;2022-10-17T04:18:18;8.50;;;1.60;;
13443;SDS011;6794;59.218;18.218;2022-10-17T04:20:44;5.00;;;1.33;;
13443;SDS011;6794;59.218;18.218;2022-10-17T04:23:10;8.10;;;2.70;;
13443;SDS011;6794;59.218;18.218;2022-10-17T04:25:36;8.53;;;2.13;;
13443;SDS011;6794;59.218;18.218;2022-10-17T04:28:02;7.67;;;1.70;;
13443;SDS011;6794;59.218;18.218;2022-10-17T04:30:28;7.17;;;1.50;;
13443;SDS011;6794;59.218;18.218;2022-10-17T04:32:55;10.77;;;1.70;;
13443;SDS011;6794;59.218;18.218;2022-10-17T04:35:21;5.83;;;1.77;;
13443;SDS011;6794;59.218;18.218;2022-10-17T04:37:47;5.53;;;1.33;;
13443;SDS011;6794;59.218;18.218;2022-10-17T04:40:13;9.90;;;1.87;;
13443;SDS011;6794;59.218;18.218;2022-10-17T04:42:39;8.77;;;1.83;;
13443;SDS011;6794;59.218;18.218;2022-10-17T04:45:05;7.03;;;1.70;;
13443;SDS011;6794;59.218;18.218;2022-10-17T04:47:31;10.13;;;1.90;;
13443;SDS011;6794;59.218;18.218;2022-10-17T04:49:57;8.03;;;1.90;;
13443;SDS011;6794;59.218;18.218;2022-10-17T04:52:23;7.83;;;1.57;;
13443;SDS011;6794;59.218;18.218;2022-10-17T04:54:49;6.30;;;1.43;;
13443;SDS011;6794;59.218;18.218;2022-10-17T04:57:16;8.20;;;2.10;;
13443;SDS011;6794;59.218;18.218;2022-10-17T04:59:42;4.57;;;1.43;;
13443;SDS011;6794;59.218;18.218;2022-10-17T05:02:08;8.10;;;1.77;;
13443;SDS011;6794;59.218;18.218;2022-10-17T05:04:34;6.50;;;1.53;;
13443;SDS011;6794;59.218;18.218;2022-10-17T05:07:00;7.40;;;1.50;;
13443;SDS011;6794;59.218;18.218;2022-10-17T05:09:27;7.97;;;1.80;;
13443;SDS011;6794;59.218;18.218;2022-10-17T05:11:53;8.57;;;2.10;;
13443;SDS011;6794;59.218;18.218;2022-10-17T05:14:19;6.60;;;2.03;;
13443;SDS011;6794;59.218;18.218;2022-10-17T05:16:45;4.77;;;1.37;;
13443;SDS011;6794;59.218;18.218;2022-10-17T05:19:11;4.97;;;1.50;;
13443;SDS011;6794;59.218;18.218;2022-10-17T05:21:37;7.27;;;1.40;;
13443;SDS011;6794;59.218;18.218;2022-10-17T05:24:04;5.57;;;1.60;;
13443;SDS011;6794;59.218;18.218;2022-10-17T05:26:30;3.47;;;1.23;;
13443;SDS011;6794;59.218;18.218;2022-10-17T05:28:58;6.40;;;1.40;;
13443;SDS011;6794;59.218;18.218;2022-10-17T05:31:26;7.27;;;1.40;;
13443;SDS011;6794;59.218;18.218;2022-10-17T05:33:52;6.17;;;1.30;;
13443;SDS011;6794;59.218;18.218;2022-10-17T05:36:18;5.00;;;1.80;;
13443;SDS011;6794;59.218;18.218;2022-10-17T05:38:47;7.70;;;1.70;;
13443;SDS011;6794;59.218;18.218;2022-10-17T05:41:14;10.10;;;2.03;;
13443;SDS011;6794;59.218;18.218;2022-10-17T05:43:40;6.27;;;1.60;;
13443;SDS011;6794;59.218;18.218;2022-10-17T05:46:06;6.87;;;1.60;;
13443;SDS011;6794;59.218;18.218;2022-10-17T05:48:33;5.43;;;1.63;;
13443;SDS011;6794;59.218;18.218;2022-10-17T05:51:00;10.37;;;2.00;;
13443;SDS011;6794;59.218;18.218;2022-10-17T05:53:29;3.20;;;1.20;;
13443;SDS011;6794;59.218;18.218;2022-10-17T05:55:56;5.70;;;2.00;;
13443;SDS011;6794;59.218;18.218;2022-10-17T05:58:22;7.50;;;1.63;;
13443;SDS011;6794;59.218;18.218;2022-10-17T06:00:48;6.67;;;1.43;;
13443;SDS011;6794;59.218;18.218;2022-10-17T06:03:15;10.07;;;2.87;;
13443;SDS011;6794;59.218;18.218;2022-10-17T06:05:41;7.30;;;1.23;;
13443;SDS011;6794;59.218;18.218;2022-10-17T06:08:07;8.23;;;1.70;;
13443;SDS011;6794;59.218;18.218;2022-10-17T06:10:33;7.33;;;1.87;;
13443;SDS011;6794;59.218;18.218;2022-10-17T06:12:59;8.63;;;1.80;;
13443;SDS011;6794;59.218;18.218;2022-10-17T06:15:25;5.20;;;1.37;;
13443;SDS011;6794;59.218;18.218;2022-10-17T06:17:51;9.80;;;1.90;;
13443;SDS011;6794;59.218;18.218;2022-10-17T06:20:17;9.80;;;2.00;;
13443;SDS011;6794;59.218;18.218;2022-10-17T06:22:43;6.13;;;1.90;;
13443;SDS011;6794;59.218;18.218;2022-10-17T06:25:09;8.37;;;1.90;;
13443;SDS011;6794;59.218;18.218;2022-10-17T06:27:35;5.63;;;1.53;;
13443;SDS011;6794;59.218;18.218;2022-10-17T06:30:01;9.37;;;1.93;;
13443;SDS011;6794;59.218;18.218;2022-10-17T06:32:28;7.03;;;1.60;;
13443;SDS011;6794;59.218;18.218;2022-10-17T06:34:54;7.47;;;1.57;;
13443;SDS011;6794;59.218;18.218;2022-10-17T06:37:20;7.77;;;1.70;;
13443;SDS011;6794;59.218;18.218;2022-10-17T06:39:46;10.83;;;1.60;;
13443;SDS011;6794;59.218;18.218;2022-10-17T06:42:12;9.10;;;1.60;;
13443;SDS011;6794;59.218;18.218;2022-10-17T06:44:38;7.17;;;1.80;;
13443;SDS011;6794;59.218;18.218;2022-10-17T06:47:05;8.27;;;1.93;;
13443;SDS011;6794;59.218;18.218;2022-10-17T06:49:31;7.77;;;1.57;;
13443;SDS011;6794;59.218;18.218;2022-10-17T06:51:58;6.73;;;1.90;;
13443;SDS011;6794;59.218;18.218;2022-10-17T06:54:24;4.43;;;1.47;;
13443;SDS011;6794;59.218;18.218;2022-10-17T06:56:51;8.37;;;2.17;;
13443;SDS011;6794;59.218;18.218;2022-10-17T06:59:18;8.60;;;1.53;;
13443;SDS011;6794;59.218;18.218;2022-10-17T07:01:44;12.40;;;2.20;;
13443;SDS011;6794;59.218;18.218;2022-10-17T07:04:10;3.87;;;1.40;;
13443;SDS011;6794;59.218;18.218;2022-10-17T07:06:36;6.83;;;1.77;;
13443;SDS011;6794;59.218;18.218;2022-10-17T07:09:03;7.37;;;1.67;;
13443;SDS011;6794;59.218;18.218;2022-10-17T07:11:31;4.60;;;1.57;;
13443;SDS011;6794;59.218;18.218;2022-10-17T07:13:58;6.47;;;1.43;;
13443;SDS011;6794;59.218;18.218;2022-10-17T07:16:24;6.93;;;1.63;;
13443;SDS011;6794;59.218;18.218;2022-10-17T07:18:50;7.93;;;2.07;;
13443;SDS011;6794;59.218;18.218;2022-10-17T07:21:18;9.77;;;1.87;;
13443;SDS011;6794;59.218;18.218;2022-10-17T07:23:44;6.33;;;1.50;;
13443;SDS011;6794;59.218;18.218;2022-10-17T07:26:11;8.13;;;1.63;;
13443;SDS011;6794;59.218;18.218;2022-10-17T07:28:38;7.78;;;2.10;;
13443;SDS011;6794;59.218;18.218;2022-10-17T07:31:05;5.20;;;1.50;;
13443;SDS011;6794;59.218;18.218;2022-10-17T07:33:31;9.07;;;2.10;;
13443;SDS011;6794;59.218;18.218;2022-10-17T07:35:58;7.73;;;1.83;;
13443;SDS011;6794;59.218;18.218;2022-10-17T07:38:24;5.97;;;2.17;;
13443;SDS011;6794;59.218;18.218;2022-10-17T07:40:56;8.57;;;2.13;;
13443;SDS011;6794;59.218;18.218;2022-10-17T07:43:23;7.20;;;1.67;;
13443;SDS011;6794;59.218;18.218;2022-10-17T07:45:49;7.10;;;1.60;;
13443;SDS011;6794;59.218;18.218;2022-10-17T07:48:15;6.43;;;1.70;;
13443;SDS011;6794;59.218;18.218;2022-10-17T07:50:41;4.30;;;1.47;;
13443;SDS011;6794;59.218;18.218;2022-10-17T07:53:07;6.37;;;1.73;;
13443;SDS011;6794;59.218;18.218;2022-10-17T07:55:35;10.63;;;1.60;;
13443;SDS011;6794;59.218;18.218;2022-10-17T07:58:01;5.80;;;1.93;;
13443;SDS011;6794;59.218;18.218;2022-10-17T08:00:27;8.60;;;2.20;;
13443;SDS011;6794;59.218;18.218;2022-10-17T08:02:53;5.20;;;1.67;;
13443;SDS011;6794;59.218;18.218;2022-10-17T08:05:19;5.30;;;1.30;;
13443;SDS011;6794;59.218;18.218;2022-10-17T08:07:45;3.97;;;1.40;;
13443;SDS011;6794;59.218;18.218;2022-10-17T08:10:12;10.97;;;1.97;;
13443;SDS011;6794;59.218;18.218;2022-10-17T08:12:38;6.17;;;1.70;;
13443;SDS011;6794;59.218;18.218;2022-10-17T08:15:05;8.00;;;1.63;;
13443;SDS011;6794;59.218;18.218;2022-10-17T08:17:32;9.20;;;1.87;;
13443;SDS011;6794;59.218;18.218;2022-10-17T08:19:58;6.27;;;1.53;;
13443;SDS011;6794;59.218;18.218;2022-10-17T08:22:24;4.60;;;1.50;;
13443;SDS011;6794;59.218;18.218;2022-10-17T08:24:51;6.70;;;1.70;;
13443;SDS011;6794;59.218;18.218;2022-10-17T08:27:17;5.40;;;1.43;;
13443;SDS011;6794;59.218;18.218;2022-10-17T08:29:48;7.63;;;1.57;;
13443;SDS011;6794;59.218;18.218;2022-10-17T08:32:17;10.30;;;2.03;;
13443;SDS011;6794;59.218;18.218;2022-10-17T08:34:43;8.87;;;1.60;;
13443;SDS011;6794;59.218;18.218;2022-10-17T08:37:09;5.17;;;1.70;;
13443;SDS011;6794;59.218;18.218;2022-10-17T08:39:37;4.43;;;1.40;;
13443;SDS011;6794;59.218;18.218;2022-10-17T08:47:03;7.30;;;1.70;;
13443;SDS011;6794;59.218;18.218;2022-10-17T08:52:01;4.27;;;1.30;;
13443;SDS011;6794;59.218;18.218;2022-10-17T08:54:39;5.33;;;1.60;;
13443;SDS011;6794;59.218;18.218;2022-10-17T08:57:09;5.90;;;1.87;;
13443;SDS011;6794;59.218;18.218;2022-10-17T08:59:36;6.40;;;1.63;;
13443;SDS011;6794;59.218;18.218;2022-10-17T09:02:09;4.30;;;1.53;;
13443;SDS011;6794;59.218;18.218;2022-10-17T09:19:57;9.30;;;1.60;;
13443;SDS011;6794;59.218;18.218;2022-10-17T09:22:25;5.97;;;1.40;;
13443;SDS011;6794;59.218;18.218;2022-10-17T09:24:54;3.90;;;1.30;;
13443;SDS011;6794;59.218;18.218;2022-10-17T09:27:23;4.97;;;1.70;;
13443;SDS011;6794;59.218;18.218;2022-10-17T09:29:51;6.03;;;2.03;;
13443;SDS011;6794;59.218;18.218;2022-10-17T09:32:23;6.57;;;1.53;;
13443;SDS011;6794;59.218;18.218;2022-10-17T09:34:50;4.37;;;1.30;;
13443;SDS011;6794;59.218;18.218;2022-10-17T09:37:17;4.17;;;1.50;;
13443;SDS011;6794;59.218;18.218;2022-10-17T09:39:43;4.60;;;1.10;;
13443;SDS011;6794;59.218;18.218;2022-10-17T09:42:11;4.40;;;1.40;;
13443;SDS011;6794;59.218;18.218;2022-10-17T09:44:44;4.23;;;1.47;;
13443;SDS011;6794;59.218;18.218;2022-10-17T09:49:42;7.17;;;1.77;;
13443;SDS011;6794;59.218;18.218;2022-10-17T09:52:10;4.47;;;1.60;;
13443;SDS011;6794;59.218;18.218;2022-10-17T09:54:47;4.30;;;1.57;;
13443;SDS011;6794;59.218;18.218;2022-10-17T09:57:14;3.57;;;1.40;;
13443;SDS011;6794;59.218;18.218;2022-10-17T09:59:42;2.83;;;1.50;;
13443;SDS011;6794;59.218;18.218;2022-10-17T10:04:35;4.03;;;1.30;;
13443;SDS011;6794;59.218;18.218;2022-10-17T10:07:02;6.43;;;1.50;;
13443;SDS011;6794;59.218;18.218;2022-10-17T10:09:32;3.00;;;1.10;;
13443;SDS011;6794;59.218;18.218;2022-10-17T10:11:59;3.73;;;1.50;;
13443;SDS011;6794;59.218;18.218;2022-10-17T10:14:34;4.23;;;1.47;;
13443;SDS011;6794;59.218;18.218;2022-10-17T10:17:01;6.43;;;1.27;;
13443;SDS011;6794;59.218;18.218;2022-10-17T10:21:57;5.80;;;1.47;;
13443;SDS011;6794;59.218;18.218;2022-10-17T10:24:24;5.87;;;1.07;;
13443;SDS011;6794;59.218;18.218;2022-10-17T10:26:51;2.70;;;1.17;;
13443;SDS011;6794;59.218;18.218;2022-10-17T10:29:34;3.57;;;1.20;;
13443;SDS011;6794;59.218;18.218;2022-10-17T10:34:51;3.07;;;1.00;;
13443;SDS011;6794;59.218;18.218;2022-10-17T10:37:19;9.37;;;1.90;;
13443;SDS011;6794;59.218;18.218;2022-10-17T10:39:50;4.17;;;1.30;;
13443;SDS011;6794;59.218;18.218;2022-10-17T10:42:21;3.17;;;1.17;;
13443;SDS011;6794;59.218;18.218;2022-10-17T10:44:48;6.97;;;1.37;;
13443;SDS011;6794;59.218;18.218;2022-10-17T10:49:43;3.10;;;1.20;;
13443;SDS011;6794;59.218;18.218;2022-10-17T10:52:16;5.63;;;1.73;;
13443;SDS011;6794;59.218;18.218;2022-10-17T10:54:53;3.77;;;1.30;;
13443;SDS011;6794;59.218;18.218;2022-10-17T10:57:20;4.07;;;1.20;;
13443;SDS011;6794;59.218;18.218;2022-10-17T11:07:34;3.90;;;1.43;;
13443;SDS011;6794;59.218;18.218;2022-10-17T11:10:14;1.73;;;0.90;;
13443;SDS011;6794;59.218;18.218;2022-10-17T11:15:15;1.47;;;1.00;;
13443;SDS011;6794;59.218;18.218;2022-10-17T11:22:48;5.20;;;1.70;;
13443;SDS011;6794;59.218;18.218;2022-10-17T11:25:18;3.23;;;1.20;;
13443;SDS011;6794;59.218;18.218;2022-10-17T11:27:45;4.47;;;1.50;;
13443;SDS011;6794;59.218;18.218;2022-10-17T11:30:13;4.07;;;1.50;;
13443;SDS011;6794;59.218;18.218;2022-10-17T11:32:41;4.33;;;1.10;;
13443;SDS011;6794;59.218;18.218;2022-10-17T11:38:15;5.23;;;1.40;;
13443;SDS011;6794;59.218;18.218;2022-10-17T11:40:44;6.47;;;1.40;;
13443;SDS011;6794;59.218;18.218;2022-10-17T11:43:16;3.83;;;1.40;;
13443;SDS011;6794;59.218;18.218;2022-10-17T11:45:45;4.50;;;1.20;;
13443;SDS011;6794;59.218;18.218;2022-10-17T11:48:15;6.07;;;1.20;;
13443;SDS011;6794;59.218;18.218;2022-10-17T11:50:45;3.40;;;1.30;;
13443;SDS011;6794;59.218;18.218;2022-10-17T11:53:22;5.67;;;1.77;;
13443;SDS011;6794;59.218;18.218;2022-10-17T11:55:49;5.40;;;2.30;;
13443;SDS011;6794;59.218;18.218;2022-10-17T12:15:54;7.47;;;1.60;;
13443;SDS011;6794;59.218;18.218;2022-10-17T12:18:23;5.93;;;1.50;;
13443;SDS011;6794;59.218;18.218;2022-10-17T12:20:58;5.67;;;1.30;;
13443;SDS011;6794;59.218;18.218;2022-10-17T12:23:28;5.63;;;1.57;;
13443;SDS011;6794;59.218;18.218;2022-10-17T12:26:01;3.53;;;1.20;;
13443;SDS011;6794;59.218;18.218;2022-10-17T12:30:57;5.67;;;1.30;;
13443;SDS011;6794;59.218;18.218;2022-10-17T12:33:27;6.27;;;1.27;;
13443;SDS011;6794;59.218;18.218;2022-10-17T12:38:48;8.10;;;1.20;;
13443;SDS011;6794;59.218;18.218;2022-10-17T12:41:14;4.83;;;1.53;;
13443;SDS011;6794;59.218;18.218;2022-10-17T12:43:44;4.40;;;1.37;;
13443;SDS011;6794;59.218;18.218;2022-10-17T12:46:10;4.77;;;1.30;;
13443;SDS011;6794;59.218;18.218;2022-10-17T12:51:12;5.10;;;1.40;;
13443;SDS011;6794;59.218;18.218;2022-10-17T12:56:05;2.97;;;1.37;;
13443;SDS011;6794;59.218;18.218;2022-10-17T12:58:31;5.37;;;1.40;;
13443;SDS011;6794;59.218;18.218;2022-10-17T13:00:58;5.37;;;1.63;;
13443;SDS011;6794;59.218;18.218;2022-10-17T13:03:25;5.63;;;1.70;;
13443;SDS011;6794;59.218;18.218;2022-10-17T13:05:54;5.83;;;1.67;;
13443;SDS011;6794;59.218;18.218;2022-10-17T13:08:28;4.10;;;1.83;;
13443;SDS011;6794;59.218;18.218;2022-10-17T13:10:54;11.40;;;2.17;;
13443;SDS011;6794;59.218;18.218;2022-10-17T13:15:57;4.70;;;1.77;;
13443;SDS011;6794;59.218;18.218;2022-10-17T13:18:24;6.13;;;2.00;;
13443;SDS011;6794;59.218;18.218;2022-10-17T13:20:57;6.20;;;2.20;;
13443;SDS011;6794;59.218;18.218;2022-10-17T13:23:24;6.93;;;2.50;;
13443;SDS011;6794;59.218;18.218;2022-10-17T13:28:29;5.20;;;2.23;;
13443;SDS011;6794;59.218;18.218;2022-10-17T13:30:55;8.90;;;2.77;;
13443;SDS011;6794;59.218;18.218;2022-10-17T13:33:30;4.60;;;2.20;;
13443;SDS011;6794;59.218;18.218;2022-10-17T13:35:56;9.20;;;2.20;;
13443;SDS011;6794;59.218;18.218;2022-10-17T13:38:25;9.00;;;3.07;;
13443;SDS011;6794;59.218;18.218;2022-10-17T13:40:52;6.23;;;2.20;;
13443;SDS011;6794;59.218;18.218;2022-10-17T13:43:18;7.50;;;2.50;;
13443;SDS011;6794;59.218;18.218;2022-10-17T13:45:46;5.73;;;2.07;;
13443;SDS011;6794;59.218;18.218;2022-10-17T13:48:17;4.87;;;2.30;;
13443;SDS011;6794;59.218;18.218;2022-10-17T13:50:46;6.93;;;2.10;;
13443;SDS011;6794;59.218;18.218;2022-10-17T13:53:31;10.93;;;2.43;;
13443;SDS011;6794;59.218;18.218;2022-10-17T13:55:58;9.37;;;2.80;;
13443;SDS011;6794;59.218;18.218;2022-10-17T13:58:25;7.63;;;2.80;;
13443;SDS011;6794;59.218;18.218;2022-10-17T14:00:52;6.67;;;2.53;;
13443;SDS011;6794;59.218;18.218;2022-10-17T14:03:19;11.50;;;3.57;;
13443;SDS011;6794;59.218;18.218;2022-10-17T14:08:30;10.10;;;3.00;;
13443;SDS011;6794;59.218;18.218;2022-10-17T14:10:56;6.53;;;2.00;;
13443;SDS011;6794;59.218;18.218;2022-10-17T14:13:23;8.17;;;2.00;;
13443;SDS011;6794;59.218;18.218;2022-10-17T14:15:51;8.07;;;2.10;;
13443;SDS011;6794;59.218;18.218;2022-10-17T14:18:24;6.33;;;2.47;;
13443;SDS011;6794;59.218;18.218;2022-10-17T14:20:51;7.90;;;2.37;;
13443;SDS011;6794;59.218;18.218;2022-10-17T14:23:34;10.27;;;2.50;;
13443;SDS011;6794;59.218;18.218;2022-10-17T14:28:30;10.20;;;2.40;;
13443;SDS011;6794;59.218;18.218;2022-10-17T14:31:08;7.67;;;2.80;;
13443;SDS011;6794;59.218;18.218;2022-10-17T14:33:34;6.63;;;2.63;;
13443;SDS011;6794;59.218;18.218;2022-10-17T14:36:00;6.90;;;2.17;;
13443;SDS011;6794;59.218;18.218;2022-10-17T14:38:27;10.03;;;4.90;;
13443;SDS011;6794;59.218;18.218;2022-10-17T14:41:28;13.73;;;8.13;;
13443;SDS011;6794;59.218;18.218;2022-10-17T14:43:57;15.37;;;7.77;;
13443;SDS011;6794;59.218;18.218;2022-10-17T14:46:24;11.83;;;4.60;;
13443;SDS011;6794;59.218;18.218;2022-10-17T14:48:51;11.80;;;5.57;;
13443;SDS011;6794;59.218;18.218;2022-10-17T14:51:17;11.27;;;4.90;;
13443;SDS011;6794;59.218;18.218;2022-10-17T14:56:42;13.80;;;6.30;;
13443;SDS011;6794;59.218;18.218;2022-10-17T14:59:13;12.20;;;6.07;;
13443;SDS011;6794;59.218;18.218;2022-10-17T15:01:41;21.37;;;12.37;;
13443;SDS011;6794;59.218;18.218;2022-10-17T15:04:07;10.97;;;6.93;;
13443;SDS011;6794;59.218;18.218;2022-10-17T15:06:34;9.73;;;3.13;;
13443;SDS011;6794;59.218;18.218;2022-10-17T15:09:01;8.37;;;2.50;;
13443;SDS011;6794;59.218;18.218;2022-10-17T15:11:28;9.07;;;4.27;;
13443;SDS011;6794;59.218;18.218;2022-10-17T15:13:54;9.17;;;2.43;;
13443;SDS011;6794;59.218;18.218;2022-10-17T15:16:21;7.23;;;3.63;;
13443;SDS011;6794;59.218;18.218;2022-10-17T15:18:48;11.30;;;4.90;;
13443;SDS011;6794;59.218;18.218;2022-10-17T15:21:15;9.50;;;4.87;;
13443;SDS011;6794;59.218;18.218;2022-10-17T15:23:41;7.87;;;3.60;;
13443;SDS011;6794;59.218;18.218;2022-10-17T15:26:12;11.27;;;6.27;;
13443;SDS011;6794;59.218;18.218;2022-10-17T15:28:39;10.53;;;4.53;;
13443;SDS011;6794;59.218;18.218;2022-10-17T15:31:05;9.37;;;4.20;;
13443;SDS011;6794;59.218;18.218;2022-10-17T15:33:31;8.93;;;3.83;;
13443;SDS011;6794;59.218;18.218;2022-10-17T15:35:57;8.73;;;3.13;;
13443;SDS011;6794;59.218;18.218;2022-10-17T15:38:23;10.30;;;2.17;;
13443;SDS011;6794;59.218;18.218;2022-10-17T15:40:49;7.50;;;2.10;;
13443;SDS011;6794;59.218;18.218;2022-10-17T15:43:16;5.73;;;2.17;;
13443;SDS011;6794;59.218;18.218;2022-10-17T15:45:42;6.37;;;1.97;;
13443;SDS011;6794;59.218;18.218;2022-10-17T15:48:09;14.90;;;2.47;;
13443;SDS011;6794;59.218;18.218;2022-10-17T15:50:41;11.70;;;2.73;;
13443;SDS011;6794;59.218;18.218;2022-10-17T15:53:10;6.77;;;2.20;;
13443;SDS011;6794;59.218;18.218;2022-10-17T15:55:37;5.63;;;2.13;;
13443;SDS011;6794;59.218;18.218;2022-10-17T15:58:03;6.10;;;2.10;;
13443;SDS011;6794;59.218;18.218;2022-10-17T16:00:29;5.73;;;2.43;;
13443;SDS011;6794;59.218;18.218;2022-10-17T16:02:55;8.60;;;2.03;;
13443;SDS011;6794;59.218;18.218;2022-10-17T16:05:22;7.47;;;2.23;;
13443;SDS011;6794;59.218;18.218;2022-10-17T16:07:49;10.20;;;2.10;;
13443;SDS011;6794;59.218;18.218;2022-10-17T16:10:16;8.43;;;2.40;;
13443;SDS011;6794;59.218;18.218;2022-10-17T16:12:42;8.63;;;2.40;;
13443;SDS011;6794;59.218;18.218;2022-10-17T16:15:15;9.30;;;2.80;;
13443;SDS011;6794;59.218;18.218;2022-10-17T16:17:41;6.37;;;2.50;;
13443;SDS011;6794;59.218;18.218;2022-10-17T16:20:08;18.10;;;11.17;;
13443;SDS011;6794;59.218;18.218;2022-10-17T16:22:34;25.87;;;13.80;;
13443;SDS011;6794;59.218;18.218;2022-10-17T16:25:06;22.10;;;10.03;;
13443;SDS011;6794;59.218;18.218;2022-10-17T16:27:36;10.27;;;4.53;;
13443;SDS011;6794;59.218;18.218;2022-10-17T16:30:05;11.40;;;3.30;;
13443;SDS011;6794;59.218;18.218;2022-10-17T16:32:32;9.53;;;2.73;;
13443;SDS011;6794;59.218;18.218;2022-10-17T16:34:58;5.80;;;3.00;;
13443;SDS011;6794;59.218;18.218;2022-10-17T16:37:27;9.32;;;3.30;;
13443;SDS011;6794;59.218;18.218;2022-10-17T16:39:53;7.37;;;2.20;;
13443;SDS011;6794;59.218;18.218;2022-10-17T16:42:19;6.43;;;2.30;;
13443;SDS011;6794;59.218;18.218;2022-10-17T16:44:46;8.20;;;2.37;;
13443;SDS011;6794;59.218;18.218;2022-10-17T16:47:12;5.93;;;2.23;;
13443;SDS011;6794;59.218;18.218;2022-10-17T16:49:38;9.70;;;2.20;;
13443;SDS011;6794;59.218;18.218;2022-10-17T16:52:04;12.33;;;2.40;;
13443;SDS011;6794;59.218;18.218;2022-10-17T16:54:30;8.33;;;2.07;;